AirNav   Everest Fuels
 
 687 users online  

0TX3 UT Health East Texas Carthage Hospital Heliport
Carthage, Texas, USA

GOING TO CARTHAGE?


FAA INFORMATION EFFECTIVE 05 DECEMBER 2019

Location

FAA Identifier: 0TX3
Lat/Long: 32-09-59.1700N 094-20-45.9600W
32-09.986167N 094-20.766000W
32.1664361,-94.3461000
(estimated)
Elevation: 296 ft. / 90 m (estimated)
Variation: 05E (1985)
From city: 1 mile N of CARTHAGE, TX
Time zone: UTC -6 (UTC -5 during Daylight Saving Time)
Zip code: 75633

Heliport Operations

Heliport use: Private use, MEDICAL.
Activation date: 06/1989
Control tower: no
ARTCC: FORT WORTH CENTER
FSS: FORT WORTH FLIGHT SERVICE STATION
Attendance: CONTINUOUS
Wind indicator: yes
Segmented circle: no

Heliport Communications

WX AWOS-3PT at 4F2 (2.5 nm E): 121.125 (903-690-0511)

Nearby radio navigation aids

VOR radial/distance  VOR name  Freq  Var
GGGr119/25.6GREGG COUNTY VORTAC112.3007E

 
NDB name  Hdg/Dist  Freq  Var  ID
CARTHAGE248/2.733204ERPF .-. .--. ..-.
AMASON330/22.334104ECZJ -.-. --.. .---
NACOGDOCHES026/36.139105EGXD --. -..- -..

Heliport Services

Runway Information

Helipad H1

Dimensions: 20 x 20 ft. / 6 x 6 m
Surface: concrete
Latitude: 32-09.986167N
Longitude: 094-20.766000W
Elevation: 296.0 ft.
Traffic pattern: leftleft

Heliport Ownership and Management from official FAA records

Ownership: Publicly-owned
Owner: CARTHAGE HOSPITAL, LLC.
409 W. COTTAGE
CARTHAGE, TX 75633
Phone 214-693-3841
Manager: GARY HUDSON
409 W. COTTAGE
CARTHAGE, TX 75633
Phone 214-693-3841

Additional Remarks

A52-H1 RWY H1 12'LGT POLES 60' W & 303' ANT 550' SW OF LNDG AREA
FOR CD CTC FORT WORTH ARTCC AT 817-858-7584.

Instrument Procedures

There are no published instrument procedures at 0TX3.

Some nearby airports with instrument procedures:

4F2 - Panola County Airport-Sharpe Field (2 nm E)
KASL - Harrison County Airport (21 nm N)
F17 - Center Municipal Airport (22 nm SE)
KGGG - East Texas Regional Airport (23 nm NW)
KRFI - Rusk County Airport (26 nm W)
 
Loc | Ops | Rwys | IFR | FBO | Links
Com | Nav | Svcs | Stats | Notes
Area around 0TX3 (UT Health East Texas Carthage Hospital Heliport)
 
Road maps at: MapQuest Bing Google
 
Aerial photo
WARNING: Photo may not be current or correct
Aerial photo of 0TX3 (UT Health East Texas Carthage Hospital Heliport)
Do you have a better or more recent aerial photo of UT Health East Texas Carthage Hospital Heliport that you would like to share? If so, please send us your photo.

 
Sectional chart

 
Airport distance calculator
Flying to UT Health East Texas Carthage Hospital Heliport? Find the distance to fly.

From to 0TX3

Sunrise and sunset
Times for 10-Dec-2019
 Local
(UTC-6)
 Zulu
(UTC)
Morning civil twilight06:4212:42
Sunrise07:0913:09
Sunset17:1223:12
Evening civil twilight17:3923:39

Current date and time
Zulu (UTC)  10-Dec-2019 06:23:10
Local (UTC-6)  10-Dec-2019 00:23:10
 
METAR
KASL 
21nm N 
100555Z AUTO 34006KT 10SM OVC070 13/06 A3002 RMK AO1 T01270063 10211 20127 402450127
KF17 
22nm SE 
100555Z AUTO 34005KT 10SM OVC042 14/11 A2999 RMK AO2 P0001 60009 T01410109 10205 20141 402480141
KGGG 
23nm NW 
100553Z AUTO 33012KT 10SM OVC070 12/04 A3000 RMK AO2 SLP155 T01170044 10211 20117 402610117 53020
KRFI 
26nm W 
100555Z AUTO 33005G14KT 10SM OVC065 13/05 A3003 RMK AO2 T01260053 10212 20126 402590126
K3F3 
30nm E 
100555Z AUTO 32003KT 10SM OVC046 15/14 A3002 RMK AO2 P0002 60003 T01450135 10201 20145 402560145
KSHV 
31nm NE 
100556Z 34006KT 10SM SCT065 OVC080 15/09 A2997 RMK AO2 RAB26E51 SLP146 P0000 60000 T01500089 10222 20150 402610150 53021
KDTN 
38nm NE 
100553Z AUTO 35009G19KT 10SM -RA FEW055 SCT070 OVC090 15/08 A2997 RMK AO2 RAB43 SLP145 P0000 60000 T01500078 10239 20150 402610150 51017
KBAD 
40nm NE 
100556Z AUTO 35007KT 10SM -RA BKN060 OVC080 14/09 A2996 RMK AO2 RAB21E32RAB41 SLP147 P0000 60000 T01370093 10218 20137 402560137 52017
KOCH 
41nm SW 
100556Z AUTO 34008KT 10SM OVC047 14/11 A2999 RMK AO2 RAB06E29 SLP157 6//// T01440111 10200 20144 402440144 51036 PNO $
TAF
KGGG 
23nm NW 
100528Z 1006/1106 34013KT P6SM VCSH OVC070 FM100800 36012KT 6SM -SHRA OVC040 FM101200 01012KT 6SM -SHRA OVC017 FM101600 02010KT 4SM SHRA OVC007 FM102200 03009KT 6SM -SHRA BKN015 FM110100 02005KT P6SM SCT015 BKN025
NOTAMs
Click for the latest NOTAMs
NOTAMs are issued by the DoD/FAA and will open in a separate window not controlled by AirNav.

 

 
 

Would you like to see your business listed on this page?

 If your business provides an interesting product or service to pilots, flight crews, aircraft, or users of the UT Health East Texas Carthage Hospital Heliport, you should consider listing it here.  To start the listing process, click on the button below
 
Add a business
 

Other Pages about UT Health East Texas Carthage Hospital Heliport

Update a link
 
Copyright © AirNav, LLC. All rights reserved. Privacy Policy  Contact